createdAt,value
2018-12-15T00:02:20.510Z,1.20
2018-12-15T00:04:49.798Z,1.20
2018-12-15T00:07:19.124Z,1.20
2018-12-15T00:09:48.451Z,1.20
2018-12-15T00:12:17.716Z,1.20
2018-12-15T00:14:46.994Z,1.10
2018-12-15T00:17:16.216Z,1.10
2018-12-15T00:19:45.534Z,1.10
2018-12-15T00:22:14.712Z,1.10
2018-12-15T00:24:43.888Z,1.10
2018-12-15T00:27:13.218Z,1.20
2018-12-15T00:29:42.434Z,1.10
2018-12-15T00:32:11.602Z,1.10
2018-12-15T00:34:40.844Z,1.10
2018-12-15T00:37:10.150Z,1.10
2018-12-15T00:39:39.411Z,1.10
2018-12-15T00:42:08.698Z,1.10
2018-12-15T00:44:38.098Z,1.10
2018-12-15T00:47:13.563Z,1.10
2018-12-15T00:49:38.559Z,1.10
2018-12-15T00:52:07.710Z,1.10
2018-12-15T00:54:36.887Z,1.10
2018-12-15T00:57:06.054Z,1.10
2018-12-15T00:59:35.242Z,1.10
2018-12-15T01:02:04.603Z,1.10
2018-12-15T01:04:33.830Z,1.10
2018-12-15T01:07:03.131Z,1.10
2018-12-15T01:09:32.347Z,1.10
2018-12-15T01:12:01.522Z,1.10
2018-12-15T01:14:30.790Z,1.20
2018-12-15T01:17:00.008Z,1.10
2018-12-15T01:19:29.218Z,1.10
2018-12-15T01:21:58.375Z,1.10
2018-12-15T01:24:27.560Z,1.10
2018-12-15T01:26:56.716Z,1.10
2018-12-15T01:29:25.934Z,1.10
2018-12-15T01:31:55.092Z,1.00
2018-12-15T01:34:24.289Z,1.00
2018-12-15T01:36:53.549Z,1.00
2018-12-15T01:39:22.790Z,1.00
2018-12-15T01:41:51.974Z,1.00
2018-12-15T01:44:21.157Z,1.00
2018-12-15T01:46:50.399Z,1.00
2018-12-15T01:49:19.583Z,1.00
2018-12-15T01:51:48.789Z,1.00
2018-12-15T01:54:17.950Z,1.00
2018-12-15T01:56:47.195Z,1.00
2018-12-15T01:59:16.375Z,1.10
2018-12-15T02:01:45.558Z,1.10
2018-12-15T02:04:14.867Z,1.10
2018-12-15T02:06:44.190Z,1.10
2018-12-15T02:09:13.441Z,1.10
2018-12-15T02:11:42.687Z,1.10
2018-12-15T02:14:11.860Z,1.10
2018-12-15T02:16:41.082Z,1.10
2018-12-15T02:19:10.382Z,1.10
2018-12-15T02:21:39.810Z,1.10
2018-12-15T02:24:09.078Z,1.10
2018-12-15T02:26:38.406Z,1.10
2018-12-15T02:29:07.581Z,1.10
2018-12-15T02:31:36.762Z,1.10
2018-12-15T02:34:05.955Z,1.10
2018-12-15T02:36:35.175Z,1.10
2018-12-15T02:39:07.119Z,0.90
2018-12-15T02:41:36.342Z,1.00
2018-12-15T02:44:05.678Z,1.00
2018-12-15T02:46:34.868Z,1.00
2018-12-15T02:49:04.223Z,1.00
2018-12-15T02:51:33.461Z,1.10
2018-12-15T02:54:02.726Z,1.10
2018-12-15T02:56:31.934Z,1.10
2018-12-15T02:59:01.110Z,1.00
2018-12-15T03:01:30.294Z,1.00
2018-12-15T03:03:59.492Z,1.00
2018-12-15T03:06:28.716Z,1.00
2018-12-15T03:08:58.000Z,1.00
2018-12-15T03:11:27.204Z,1.00
2018-12-15T03:13:56.474Z,1.10
2018-12-15T03:16:25.818Z,1.10
2018-12-15T03:18:56.199Z,1.10
2018-12-15T03:21:25.526Z,1.10
2018-12-15T03:23:54.708Z,1.10
2018-12-15T03:26:23.896Z,1.00
2018-12-15T03:28:53.102Z,1.00
2018-12-15T03:31:22.426Z,1.00
2018-12-15T03:33:51.598Z,1.10
2018-12-15T03:36:22.151Z,1.10
2018-12-15T03:38:51.324Z,1.10
2018-12-15T03:41:20.536Z,1.10
2018-12-15T03:43:49.706Z,1.10
2018-12-15T03:46:18.899Z,1.10
2018-12-15T03:48:48.084Z,1.10
2018-12-15T03:51:17.285Z,1.10
2018-12-15T03:53:46.457Z,1.10
2018-12-15T03:56:15.723Z,1.10
2018-12-15T03:58:44.903Z,1.10
2018-12-15T04:01:14.115Z,1.10
2018-12-15T04:03:43.306Z,1.10
2018-12-15T04:06:12.627Z,1.10
2018-12-15T04:08:41.826Z,1.00
2018-12-15T04:11:11.116Z,1.00
2018-12-15T04:13:40.402Z,1.00
2018-12-15T04:16:09.696Z,1.00
2018-12-15T04:18:38.859Z,1.00
2018-12-15T04:21:08.039Z,0.90
2018-12-15T04:23:37.292Z,0.90
2018-12-15T04:26:06.483Z,0.90
2018-12-15T04:28:35.680Z,0.90
2018-12-15T04:31:04.907Z,1.00
2018-12-15T04:33:34.182Z,1.00
2018-12-15T04:36:15.519Z,1.00
2018-12-15T04:38:44.964Z,1.00
2018-12-15T04:41:14.162Z,1.00
2018-12-15T04:43:43.334Z,1.00
2018-12-15T04:46:13.202Z,1.00
2018-12-15T04:48:42.503Z,1.00
2018-12-15T04:51:11.720Z,1.00
2018-12-15T04:53:40.893Z,1.00
2018-12-15T04:56:10.097Z,1.00
2018-12-15T04:58:39.263Z,1.00
2018-12-15T05:01:08.474Z,1.00
2018-12-15T05:03:38.148Z,1.00
2018-12-15T05:06:07.388Z,1.00
2018-12-15T05:08:36.671Z,1.00
2018-12-15T05:11:05.887Z,1.00
2018-12-15T05:13:35.076Z,1.10
2018-12-15T05:16:04.274Z,1.00
2018-12-15T05:18:33.474Z,1.00
2018-12-15T05:21:02.656Z,1.10
2018-12-15T05:23:31.866Z,1.10
2018-12-15T05:26:01.067Z,1.10
2018-12-15T05:28:30.255Z,1.10
2018-12-15T05:30:59.431Z,1.10
2018-12-15T05:33:28.663Z,1.10
2018-12-15T05:35:57.851Z,1.10
2018-12-15T05:38:27.048Z,1.10
2018-12-15T05:40:56.239Z,1.10
2018-12-15T05:43:25.423Z,1.10
2018-12-15T05:45:55.019Z,1.10
2018-12-15T05:48:25.554Z,1.20
2018-12-15T05:50:55.949Z,1.20
2018-12-15T05:53:25.209Z,1.20
2018-12-15T05:55:54.392Z,1.20
2018-12-15T05:58:23.574Z,1.10
2018-12-15T06:00:52.771Z,1.10
2018-12-15T06:03:22.000Z,1.10
2018-12-15T06:05:51.170Z,1.10
2018-12-15T06:08:20.378Z,1.10
2018-12-15T06:10:49.550Z,1.10
2018-12-15T06:13:18.772Z,1.10
2018-12-15T06:15:47.939Z,1.10
2018-12-15T06:18:17.184Z,1.10
2018-12-15T06:20:46.358Z,1.10
2018-12-15T06:23:15.583Z,1.10
2018-12-15T06:25:44.749Z,1.10
2018-12-15T06:28:13.964Z,1.10
2018-12-15T06:30:43.139Z,1.10
2018-12-15T06:33:12.351Z,1.10
2018-12-15T06:35:41.638Z,1.10
2018-12-15T06:38:10.822Z,1.10
2018-12-15T06:40:40.022Z,1.10
2018-12-15T06:43:09.246Z,1.20
2018-12-15T06:45:38.410Z,1.10
2018-12-15T06:48:07.643Z,1.10
2018-12-15T06:50:36.814Z,1.10
2018-12-15T06:53:06.030Z,1.10
2018-12-15T06:55:35.218Z,1.10
2018-12-15T06:58:04.534Z,1.10
2018-12-15T07:00:33.717Z,1.10
2018-12-15T07:03:02.930Z,1.10
2018-12-15T07:05:32.102Z,1.10
2018-12-15T07:08:01.368Z,1.10
2018-12-15T07:10:30.607Z,1.00
2018-12-15T07:12:59.818Z,1.00
2018-12-15T07:15:29.010Z,1.00
2018-12-15T07:17:58.224Z,1.00
2018-12-15T07:20:27.502Z,1.00
2018-12-15T07:22:56.706Z,1.00
2018-12-15T07:25:25.875Z,1.00
2018-12-15T07:27:55.108Z,1.00
2018-12-15T07:30:24.276Z,1.00
2018-12-15T07:32:53.590Z,1.00
2018-12-15T07:35:22.774Z,1.00
2018-12-15T07:37:51.981Z,1.00
2018-12-15T07:40:21.143Z,1.00
2018-12-15T07:42:50.395Z,1.00
2018-12-15T07:45:19.575Z,1.00
2018-12-15T07:47:48.879Z,1.00
2018-12-15T07:50:18.075Z,0.90
2018-12-15T07:52:47.279Z,0.90
2018-12-15T07:55:16.466Z,0.90
2018-12-15T07:57:45.674Z,0.90
2018-12-15T08:00:18.130Z,0.90
2018-12-15T08:02:47.346Z,0.90
2018-12-15T08:05:16.540Z,0.90
2018-12-15T08:07:46.044Z,0.90
2018-12-15T08:10:19.338Z,0.90
2018-12-15T08:12:52.674Z,0.90
2018-12-15T08:15:21.957Z,0.90
2018-12-15T08:17:51.238Z,0.90
2018-12-15T08:20:20.527Z,0.90
2018-12-15T08:22:49.723Z,0.90
2018-12-15T08:25:18.923Z,0.90
2018-12-15T08:27:48.144Z,0.90
2018-12-15T08:30:17.407Z,0.90
2018-12-15T08:32:46.676Z,0.90
2018-12-15T08:35:15.845Z,0.90
2018-12-15T08:37:45.026Z,0.90
2018-12-15T08:40:14.365Z,0.90
2018-12-15T08:42:43.576Z,0.90
2018-12-15T08:45:12.818Z,0.90
2018-12-15T08:47:41.983Z,0.90
2018-12-15T08:50:11.322Z,0.90
2018-12-15T08:52:40.816Z,0.90
2018-12-15T08:55:09.746Z,0.90
2018-12-15T08:57:39.011Z,0.90
2018-12-15T09:00:08.453Z,0.90
2018-12-15T09:02:37.683Z,0.90
2018-12-15T09:05:07.088Z,0.90
2018-12-15T09:07:36.291Z,0.90
2018-12-15T09:10:05.750Z,0.90
2018-12-15T09:12:34.993Z,0.90
2018-12-15T09:15:04.730Z,1.00
2018-12-15T09:17:33.901Z,1.00
2018-12-15T09:20:03.125Z,1.00
2018-12-15T09:22:32.449Z,1.00
2018-12-15T09:25:01.687Z,1.00
2018-12-15T09:27:30.899Z,1.00
2018-12-15T09:30:00.126Z,1.00
2018-12-15T09:32:29.391Z,1.00
2018-12-15T09:34:58.642Z,1.00
2018-12-15T09:37:27.920Z,1.00
2018-12-15T09:39:57.162Z,1.00
2018-12-15T09:42:26.378Z,0.90
2018-12-15T09:44:55.599Z,0.90
2018-12-15T09:47:24.771Z,0.90
2018-12-15T09:49:54.017Z,0.90
2018-12-15T09:52:23.327Z,1.00
2018-12-15T09:54:52.607Z,1.00
2018-12-15T09:57:21.773Z,1.00
2018-12-15T09:59:50.979Z,1.00
2018-12-15T10:02:20.302Z,1.00
2018-12-15T10:04:49.695Z,1.00
2018-12-15T10:07:18.866Z,1.00
2018-12-15T10:09:48.084Z,1.00
2018-12-15T10:12:17.266Z,1.00
2018-12-15T10:14:46.594Z,1.00
2018-12-15T10:17:15.842Z,1.00
2018-12-15T10:19:45.094Z,1.10
2018-12-15T10:22:14.328Z,1.10
2018-12-15T10:24:43.570Z,1.10
2018-12-15T10:27:12.743Z,1.10
2018-12-15T10:29:47.530Z,1.10
2018-12-15T10:32:22.187Z,1.10
2018-12-15T10:34:51.382Z,1.10
2018-12-15T10:37:20.700Z,1.10
2018-12-15T10:39:49.919Z,1.10
2018-12-15T10:42:19.113Z,1.20
2018-12-15T10:44:48.295Z,1.20
2018-12-15T10:47:17.459Z,1.20
2018-12-15T10:49:47.334Z,1.30
2018-12-15T10:52:16.500Z,1.30
2018-12-15T10:54:45.699Z,1.30
2018-12-15T10:57:14.877Z,1.30
2018-12-15T10:59:44.058Z,1.40
2018-12-15T11:02:13.323Z,1.40
2018-12-15T11:04:42.603Z,1.40
2018-12-15T11:07:11.855Z,1.40
2018-12-15T11:09:41.039Z,1.40
2018-12-15T11:12:10.269Z,1.40
2018-12-15T11:14:39.495Z,1.40
2018-12-15T11:17:08.698Z,1.40
2018-12-15T11:19:37.878Z,1.40
2018-12-15T11:22:07.047Z,1.50
2018-12-15T11:24:36.317Z,1.50
2018-12-15T11:27:05.555Z,1.50
2018-12-15T11:29:34.782Z,1.40
2018-12-15T11:32:04.063Z,1.40
2018-12-15T11:34:33.290Z,1.40
2018-12-15T11:37:02.462Z,1.40
2018-12-15T11:39:31.679Z,1.40
2018-12-15T11:42:00.841Z,1.40
2018-12-15T11:44:30.088Z,1.40
2018-12-15T11:47:02.743Z,1.40
2018-12-15T11:49:31.931Z,1.40
2018-12-15T11:52:01.108Z,1.50
2018-12-15T11:54:30.286Z,1.50
2018-12-15T11:56:59.439Z,1.50
2018-12-15T11:59:28.630Z,1.50
2018-12-15T12:01:59.020Z,1.60
2018-12-15T12:04:28.226Z,1.50
2018-12-15T12:06:57.549Z,1.50
2018-12-15T12:09:26.742Z,1.50
2018-12-15T12:11:55.942Z,1.50
2018-12-15T12:14:25.119Z,1.50
2018-12-15T12:16:54.326Z,1.50
2018-12-15T12:19:23.523Z,1.60
2018-12-15T12:21:52.684Z,1.60
2018-12-15T12:24:21.958Z,1.60
2018-12-15T12:26:51.174Z,1.60
2018-12-15T12:29:20.342Z,1.60
2018-12-15T12:31:49.534Z,1.50
2018-12-15T12:34:18.739Z,1.50
2018-12-15T12:36:47.916Z,1.50
2018-12-15T12:39:17.103Z,1.50
2018-12-15T12:41:46.302Z,1.50
2018-12-15T12:44:15.621Z,1.50
2018-12-15T12:46:44.891Z,1.50
2018-12-15T12:49:14.066Z,1.50
2018-12-15T12:51:43.253Z,1.50
2018-12-15T12:54:12.486Z,1.50
2018-12-15T12:56:41.700Z,1.50
2018-12-15T12:59:10.905Z,1.50
2018-12-15T13:01:40.118Z,1.50
2018-12-15T13:04:09.289Z,1.50
2018-12-15T13:06:38.467Z,1.50
2018-12-15T13:09:08.371Z,1.50
2018-12-15T13:11:37.570Z,1.50
2018-12-15T13:14:06.963Z,1.50
2018-12-15T13:16:36.231Z,1.40
2018-12-15T13:19:05.535Z,1.40
2018-12-15T13:21:34.862Z,1.40
2018-12-15T13:24:04.117Z,1.40
2018-12-15T13:26:33.397Z,1.40
2018-12-15T13:29:02.550Z,1.40
2018-12-15T13:31:32.035Z,1.40
2018-12-15T13:34:01.384Z,1.40
2018-12-15T13:39:17.826Z,1.40
2018-12-15T13:41:47.205Z,1.40
2018-12-15T13:44:16.358Z,1.40
2018-12-15T13:46:45.717Z,1.40
2018-12-15T13:49:14.994Z,1.40
2018-12-15T13:51:44.284Z,1.40
2018-12-15T13:54:13.496Z,1.40
2018-12-15T13:56:42.699Z,1.40
2018-12-15T13:59:11.853Z,1.30
2018-12-15T14:01:41.115Z,1.30
2018-12-15T14:04:10.331Z,1.30
2018-12-15T14:06:39.618Z,1.30
2018-12-15T14:09:09.506Z,1.30
2018-12-15T14:11:38.783Z,1.30
2018-12-15T14:14:08.075Z,1.20
2018-12-15T14:16:37.371Z,1.20
2018-12-15T14:19:06.706Z,1.20
2018-12-15T14:21:35.946Z,1.30
2018-12-15T14:24:05.258Z,1.20
2018-12-15T14:26:34.528Z,1.30
2018-12-15T14:29:03.803Z,1.30
2018-12-15T14:31:33.126Z,1.20
2018-12-15T14:34:02.288Z,1.20
2018-12-15T14:36:31.510Z,1.20
2018-12-15T14:39:00.787Z,1.20
2018-12-15T14:41:30.021Z,1.20
2018-12-15T14:43:59.188Z,1.20
2018-12-15T14:46:28.406Z,1.30
2018-12-15T14:48:57.702Z,1.30
2018-12-15T14:51:26.895Z,1.20
2018-12-15T14:53:56.082Z,1.20
2018-12-15T14:56:25.302Z,1.20
2018-12-15T14:58:54.486Z,1.20
2018-12-15T15:01:23.674Z,1.20
2018-12-15T15:03:52.975Z,1.20
2018-12-15T15:06:22.185Z,1.20
2018-12-15T15:08:51.354Z,1.20
2018-12-15T15:11:20.573Z,1.20
2018-12-15T15:13:49.851Z,1.20
2018-12-15T15:16:19.038Z,1.20
2018-12-15T15:18:48.283Z,1.20
2018-12-15T15:21:17.642Z,1.10
2018-12-15T15:23:46.860Z,1.10
2018-12-15T15:26:16.077Z,1.10
2018-12-15T15:28:45.446Z,1.10
2018-12-15T15:31:14.667Z,1.00
2018-12-15T15:33:43.826Z,1.00
2018-12-15T15:36:13.010Z,1.00
2018-12-15T15:38:42.176Z,1.00
2018-12-15T15:41:11.359Z,1.00
2018-12-15T15:43:40.570Z,1.00
2018-12-15T15:46:09.743Z,1.00
2018-12-15T15:48:39.112Z,1.00
2018-12-15T15:51:08.299Z,1.00
2018-12-15T15:53:37.555Z,1.00
2018-12-15T15:56:06.947Z,0.90
2018-12-15T15:58:36.135Z,0.90
2018-12-15T16:01:05.667Z,0.90
2018-12-15T16:03:35.038Z,0.90
2018-12-15T16:06:04.242Z,0.80
2018-12-15T16:08:33.536Z,0.80
2018-12-15T16:11:02.706Z,0.80
2018-12-15T16:13:31.923Z,0.80
2018-12-15T16:16:01.200Z,0.80
2018-12-15T16:18:30.440Z,0.80
2018-12-15T16:20:59.600Z,0.80
2018-12-15T16:23:28.828Z,0.70
2018-12-15T16:25:58.003Z,0.70
2018-12-15T16:28:27.330Z,0.80
2018-12-15T16:30:56.606Z,0.70
2018-12-15T16:33:25.826Z,0.70
2018-12-15T16:35:55.019Z,0.70
2018-12-15T16:38:24.222Z,0.70
2018-12-15T16:40:53.430Z,0.70
2018-12-15T16:43:22.619Z,0.70
2018-12-15T16:45:51.785Z,0.70
2018-12-15T16:48:20.968Z,0.70
2018-12-15T16:50:50.390Z,0.70
2018-12-15T16:53:19.647Z,0.60
2018-12-15T16:55:48.937Z,0.60
2018-12-15T16:58:18.214Z,0.60
2018-12-15T17:00:47.481Z,0.60
2018-12-15T17:03:16.701Z,0.60
2018-12-15T17:05:46.137Z,0.60
2018-12-15T17:08:15.498Z,0.60
2018-12-15T17:10:45.144Z,0.60
2018-12-15T17:13:14.515Z,0.60
2018-12-15T17:15:43.895Z,0.60
2018-12-15T17:18:13.432Z,0.60
2018-12-15T17:20:44.102Z,0.60
2018-12-15T17:23:13.358Z,0.60
2018-12-15T17:25:42.782Z,0.60
2018-12-15T17:28:12.448Z,0.60
2018-12-15T17:30:42.058Z,0.60
2018-12-15T17:33:12.456Z,0.60
2018-12-15T17:35:42.914Z,0.50
2018-12-15T17:38:12.576Z,0.50
2018-12-15T17:40:42.114Z,0.50
2018-12-15T17:43:11.343Z,0.60
2018-12-15T17:45:41.817Z,0.60
2018-12-15T17:48:11.143Z,0.60
2018-12-15T17:50:40.318Z,0.50
2018-12-15T17:53:09.766Z,0.50
2018-12-15T17:55:39.197Z,0.60
2018-12-15T17:58:14.533Z,0.60
2018-12-15T18:00:39.803Z,0.60
2018-12-15T18:03:08.986Z,0.60
2018-12-15T18:06:06.370Z,0.60
2018-12-15T18:09:00.140Z,0.60
2018-12-15T18:11:44.701Z,0.60
2018-12-15T18:14:22.839Z,0.60
2018-12-15T18:17:08.936Z,0.50
2018-12-15T18:19:38.214Z,0.50
2018-12-15T18:22:07.387Z,0.50
2018-12-15T18:24:36.602Z,0.50
2018-12-15T18:27:05.941Z,0.50
2018-12-15T18:29:35.299Z,0.50
2018-12-15T18:32:04.662Z,0.50
2018-12-15T18:34:34.197Z,0.50
2018-12-15T18:37:03.372Z,0.40
2018-12-15T18:39:32.597Z,0.40
2018-12-15T18:42:01.886Z,0.50
2018-12-15T18:44:31.066Z,0.50
2018-12-15T18:47:00.278Z,0.50
2018-12-15T18:49:30.464Z,0.50
2018-12-15T18:51:59.720Z,0.50
2018-12-15T18:54:29.244Z,0.60
2018-12-15T18:56:58.952Z,0.60
2018-12-15T18:59:28.623Z,0.60
2018-12-15T19:01:57.832Z,0.50
2018-12-15T19:04:27.222Z,0.50
2018-12-15T19:06:56.479Z,0.50
2018-12-15T19:09:25.658Z,0.50
2018-12-15T19:11:54.898Z,0.50
2018-12-15T19:14:24.263Z,0.50
2018-12-15T19:16:53.470Z,0.50
2018-12-15T19:19:22.818Z,0.60
2018-12-15T19:21:51.983Z,0.50
2018-12-15T19:24:21.323Z,0.50
2018-12-15T19:26:51.028Z,0.50
2018-12-15T19:29:20.222Z,0.50
2018-12-15T19:31:49.508Z,0.50
2018-12-15T19:34:18.700Z,0.50
2018-12-15T19:36:48.078Z,0.50
2018-12-15T19:39:17.328Z,0.60
2018-12-15T19:41:46.491Z,0.60
2018-12-15T19:44:15.704Z,0.60
2018-12-15T19:46:45.106Z,0.60
2018-12-15T19:49:14.307Z,0.50
2018-12-15T19:51:43.500Z,0.50
2018-12-15T19:54:12.751Z,0.50
2018-12-15T19:56:42.106Z,0.50
2018-12-15T19:59:14.651Z,0.50
2018-12-15T20:01:44.502Z,0.50
2018-12-15T20:04:13.770Z,0.50
2018-12-15T20:06:43.045Z,0.50
2018-12-15T20:09:12.372Z,0.40
2018-12-15T20:11:41.547Z,0.30
2018-12-15T20:14:10.755Z,0.40
2018-12-15T20:16:39.934Z,0.40
2018-12-15T20:19:09.179Z,0.50
2018-12-15T20:21:38.466Z,0.50
2018-12-15T20:24:07.687Z,0.50
2018-12-15T20:26:36.863Z,0.50
2018-12-15T20:29:06.085Z,0.50
2018-12-15T20:31:35.258Z,0.50
2018-12-15T20:34:04.494Z,0.50
2018-12-15T20:36:33.650Z,0.50
2018-12-15T20:39:03.625Z,0.50
2018-12-15T20:41:32.787Z,0.40
2018-12-15T20:44:01.950Z,0.30
2018-12-15T20:46:31.150Z,0.40
2018-12-15T20:49:00.516Z,0.40
2018-12-15T20:51:29.746Z,0.50
2018-12-15T20:53:58.918Z,0.50
2018-12-15T20:56:28.351Z,0.50
2018-12-15T20:58:57.536Z,0.50
2018-12-15T21:01:26.990Z,0.50
2018-12-15T21:03:56.187Z,0.60
2018-12-15T21:06:25.351Z,0.60
2018-12-15T21:08:54.569Z,0.60
2018-12-15T21:11:24.316Z,0.60
2018-12-15T21:13:53.728Z,0.60
2018-12-15T21:16:23.075Z,0.60
2018-12-15T21:18:52.295Z,0.60
2018-12-15T21:21:21.474Z,0.60
2018-12-15T21:23:50.666Z,0.60
2018-12-15T21:26:19.958Z,0.60
2018-12-15T21:28:49.277Z,0.60
2018-12-15T21:31:18.460Z,0.60
2018-12-15T21:33:47.662Z,0.60
2018-12-15T21:36:16.951Z,0.50
2018-12-15T21:38:46.170Z,0.50
2018-12-15T21:41:15.450Z,0.50
2018-12-15T21:43:44.764Z,0.50
2018-12-15T21:46:13.961Z,0.60
2018-12-15T21:48:43.163Z,0.60
2018-12-15T21:51:12.574Z,0.50
2018-12-15T21:53:41.841Z,0.40
2018-12-15T21:56:11.026Z,0.40
2018-12-15T21:58:40.198Z,0.50
2018-12-15T22:01:09.667Z,0.40
2018-12-15T22:03:39.069Z,0.30
2018-12-15T22:06:08.370Z,0.30
2018-12-15T22:08:37.640Z,0.40
2018-12-15T22:11:06.850Z,0.40
2018-12-15T22:13:36.142Z,0.50
2018-12-15T22:16:05.443Z,0.60
2018-12-15T22:18:34.636Z,0.60
2018-12-15T22:21:03.956Z,0.60
2018-12-15T22:23:33.138Z,0.50
2018-12-15T22:26:02.346Z,0.40
2018-12-15T22:28:31.528Z,0.30
2018-12-15T22:31:00.757Z,0.40
2018-12-15T22:33:30.019Z,0.30
2018-12-15T22:35:59.236Z,0.20
2018-12-15T22:38:28.433Z,0.20
2018-12-15T22:40:57.762Z,0.20
2018-12-15T22:43:26.955Z,0.20
2018-12-15T22:45:56.238Z,0.30
2018-12-15T22:48:25.423Z,0.20
2018-12-15T22:50:54.647Z,0.10
2018-12-15T22:53:23.891Z,0.10
2018-12-15T22:55:53.342Z,0.10
2018-12-15T22:58:22.515Z,0.10
2018-12-15T23:00:57.594Z,0.10
2018-12-15T23:03:26.845Z,0.10
2018-12-15T23:05:56.050Z,0.20
2018-12-15T23:08:25.243Z,0.10
2018-12-15T23:10:54.555Z,0.10
2018-12-15T23:13:23.827Z,0.10
2018-12-15T23:15:53.018Z,0.00
2018-12-15T23:18:22.219Z,0.10
2018-12-15T23:20:51.511Z,0.20
2018-12-15T23:23:20.929Z,0.30
2018-12-15T23:25:50.155Z,0.20
2018-12-15T23:28:19.418Z,0.10
2018-12-15T23:30:48.615Z,0.10
2018-12-15T23:33:17.842Z,0.10
2018-12-15T23:35:47.140Z,0.10
2018-12-15T23:38:16.310Z,0.20
2018-12-15T23:40:45.506Z,0.20
2018-12-15T23:43:14.707Z,0.10
2018-12-15T23:45:43.939Z,0.10
2018-12-15T23:48:13.103Z,0.20
2018-12-15T23:50:42.314Z,0.30
2018-12-15T23:53:11.506Z,0.30
2018-12-15T23:55:40.707Z,0.40
2018-12-15T23:58:09.866Z,0.40
